sensor_id;sensor_type;location;lat;lon;timestamp;P1;durP1;ratioP1;P2;durP2;ratioP2
67548;SDS011;54382;53.524;49.326;2022-08-03T00:02:01;54.03;;;24.33;;
67548;SDS011;54382;53.524;49.326;2022-08-03T00:04:28;48.83;;;24.20;;
67548;SDS011;54382;53.524;49.326;2022-08-03T00:06:55;38.58;;;21.85;;
67548;SDS011;54382;53.524;49.326;2022-08-03T00:09:21;43.83;;;21.67;;
67548;SDS011;54382;53.524;49.326;2022-08-03T00:11:48;41.15;;;22.13;;
67548;SDS011;54382;53.524;49.326;2022-08-03T00:14:15;46.08;;;21.65;;
67548;SDS011;54382;53.524;49.326;2022-08-03T00:16:41;45.83;;;22.85;;
67548;SDS011;54382;53.524;49.326;2022-08-03T00:19:08;39.55;;;20.65;;
67548;SDS011;54382;53.524;49.326;2022-08-03T00:21:34;40.17;;;21.20;;
67548;SDS011;54382;53.524;49.326;2022-08-03T00:24:01;40.50;;;22.60;;
67548;SDS011;54382;53.524;49.326;2022-08-03T00:26:28;42.45;;;22.90;;
67548;SDS011;54382;53.524;49.326;2022-08-03T00:28:56;44.70;;;22.05;;
67548;SDS011;54382;53.524;49.326;2022-08-03T00:31:22;39.15;;;21.33;;
67548;SDS011;54382;53.524;49.326;2022-08-03T00:33:49;42.15;;;22.85;;
67548;SDS011;54382;53.524;49.326;2022-08-03T00:36:15;42.90;;;22.15;;
67548;SDS011;54382;53.524;49.326;2022-08-03T00:38:42;41.25;;;23.10;;
67548;SDS011;54382;53.524;49.326;2022-08-03T00:41:09;40.70;;;21.42;;
67548;SDS011;54382;53.524;49.326;2022-08-03T00:43:39;48.05;;;24.00;;
67548;SDS011;54382;53.524;49.326;2022-08-03T00:46:05;42.58;;;22.48;;
67548;SDS011;54382;53.524;49.326;2022-08-03T00:48:32;43.75;;;23.10;;
67548;SDS011;54382;53.524;49.326;2022-08-03T00:50:59;39.10;;;21.67;;
67548;SDS011;54382;53.524;49.326;2022-08-03T00:53:25;37.85;;;19.08;;
67548;SDS011;54382;53.524;49.326;2022-08-03T00:55:52;43.78;;;19.62;;
67548;SDS011;54382;53.524;49.326;2022-08-03T00:58:19;45.08;;;18.95;;
67548;SDS011;54382;53.524;49.326;2022-08-03T01:00:47;43.22;;;19.95;;
67548;SDS011;54382;53.524;49.326;2022-08-03T01:03:13;39.40;;;19.20;;
67548;SDS011;54382;53.524;49.326;2022-08-03T01:06:27;37.38;;;19.17;;
67548;SDS011;54382;53.524;49.326;2022-08-03T01:11:45;41.20;;;17.90;;
67548;SDS011;54382;53.524;49.326;2022-08-03T01:14:40;29.67;;;16.83;;
67548;SDS011;54382;53.524;49.326;2022-08-03T01:17:23;35.28;;;17.02;;
67548;SDS011;54382;53.524;49.326;2022-08-03T01:20:06;31.62;;;16.83;;
67548;SDS011;54382;53.524;49.326;2022-08-03T01:31:36;29.08;;;16.55;;
67548;SDS011;54382;53.524;49.326;2022-08-03T01:34:07;29.67;;;15.75;;
67548;SDS011;54382;53.524;49.326;2022-08-03T01:36:40;30.52;;;14.25;;
67548;SDS011;54382;53.524;49.326;2022-08-03T01:39:14;26.27;;;13.90;;
67548;SDS011;54382;53.524;49.326;2022-08-03T01:41:49;20.75;;;12.02;;
67548;SDS011;54382;53.524;49.326;2022-08-03T01:44:24;23.00;;;13.70;;
67548;SDS011;54382;53.524;49.326;2022-08-03T01:46:58;20.98;;;12.13;;
67548;SDS011;54382;53.524;49.326;2022-08-03T01:49:27;25.70;;;13.05;;
67548;SDS011;54382;53.524;49.326;2022-08-03T01:51:57;27.20;;;12.63;;
67548;SDS011;54382;53.524;49.326;2022-08-03T01:54:25;29.77;;;11.75;;
67548;SDS011;54382;53.524;49.326;2022-08-03T01:56:53;23.98;;;12.00;;
67548;SDS011;54382;53.524;49.326;2022-08-03T01:59:24;18.33;;;11.32;;
67548;SDS011;54382;53.524;49.326;2022-08-03T02:01:52;21.80;;;11.70;;
67548;SDS011;54382;53.524;49.326;2022-08-03T02:04:19;25.02;;;11.02;;
67548;SDS011;54382;53.524;49.326;2022-08-03T02:06:47;28.80;;;11.12;;
67548;SDS011;54382;53.524;49.326;2022-08-03T02:09:14;38.92;;;10.77;;
67548;SDS011;54382;53.524;49.326;2022-08-03T02:11:45;24.08;;;11.73;;
67548;SDS011;54382;53.524;49.326;2022-08-03T02:14:13;30.83;;;12.13;;
67548;SDS011;54382;53.524;49.326;2022-08-03T02:16:40;73.82;;;12.63;;
67548;SDS011;54382;53.524;49.326;2022-08-03T02:19:10;25.95;;;12.18;;
67548;SDS011;54382;53.524;49.326;2022-08-03T02:21:38;23.95;;;12.02;;
67548;SDS011;54382;53.524;49.326;2022-08-03T02:24:06;23.10;;;11.90;;
67548;SDS011;54382;53.524;49.326;2022-08-03T02:26:34;29.87;;;12.07;;
67548;SDS011;54382;53.524;49.326;2022-08-03T02:29:04;26.00;;;11.85;;
67548;SDS011;54382;53.524;49.326;2022-08-03T02:31:37;26.45;;;10.98;;
67548;SDS011;54382;53.524;49.326;2022-08-03T02:34:09;24.58;;;11.52;;
67548;SDS011;54382;53.524;49.326;2022-08-03T02:36:40;22.70;;;10.80;;
67548;SDS011;54382;53.524;49.326;2022-08-03T02:39:09;28.25;;;12.40;;
67548;SDS011;54382;53.524;49.326;2022-08-03T02:41:47;26.73;;;13.45;;
67548;SDS011;54382;53.524;49.326;2022-08-03T02:44:17;28.12;;;13.02;;
67548;SDS011;54382;53.524;49.326;2022-08-03T02:46:52;31.80;;;13.20;;
67548;SDS011;54382;53.524;49.326;2022-08-03T02:49:23;30.20;;;12.35;;
67548;SDS011;54382;53.524;49.326;2022-08-03T02:51:51;30.15;;;11.82;;
67548;SDS011;54382;53.524;49.326;2022-08-03T02:54:20;32.25;;;11.18;;
67548;SDS011;54382;53.524;49.326;2022-08-03T02:56:49;31.77;;;11.48;;
67548;SDS011;54382;53.524;49.326;2022-08-03T02:59:19;25.05;;;11.90;;
67548;SDS011;54382;53.524;49.326;2022-08-03T03:01:47;31.20;;;11.88;;
67548;SDS011;54382;53.524;49.326;2022-08-03T03:04:14;32.28;;;12.55;;
67548;SDS011;54382;53.524;49.326;2022-08-03T03:06:42;24.65;;;12.05;;
67548;SDS011;54382;53.524;49.326;2022-08-03T03:09:09;24.20;;;12.07;;
67548;SDS011;54382;53.524;49.326;2022-08-03T03:11:37;33.42;;;13.23;;
67548;SDS011;54382;53.524;49.326;2022-08-03T03:14:04;29.98;;;12.55;;
67548;SDS011;54382;53.524;49.326;2022-08-03T03:16:32;30.80;;;12.23;;
67548;SDS011;54382;53.524;49.326;2022-08-03T03:19:00;35.58;;;14.10;;
67548;SDS011;54382;53.524;49.326;2022-08-03T03:21:27;28.87;;;12.37;;
67548;SDS011;54382;53.524;49.326;2022-08-03T03:23:55;30.85;;;13.57;;
67548;SDS011;54382;53.524;49.326;2022-08-03T03:26:22;50.20;;;13.98;;
67548;SDS011;54382;53.524;49.326;2022-08-03T03:28:49;35.38;;;14.20;;
67548;SDS011;54382;53.524;49.326;2022-08-03T03:31:17;35.88;;;13.65;;
67548;SDS011;54382;53.524;49.326;2022-08-03T03:33:43;25.00;;;13.68;;
67548;SDS011;54382;53.524;49.326;2022-08-03T03:36:11;31.12;;;13.95;;
67548;SDS011;54382;53.524;49.326;2022-08-03T03:38:37;34.47;;;13.55;;
67548;SDS011;54382;53.524;49.326;2022-08-03T03:41:04;27.33;;;12.90;;
67548;SDS011;54382;53.524;49.326;2022-08-03T03:43:31;33.97;;;14.45;;
67548;SDS011;54382;53.524;49.326;2022-08-03T03:45:57;31.15;;;13.80;;
67548;SDS011;54382;53.524;49.326;2022-08-03T03:48:25;46.75;;;17.05;;
67548;SDS011;54382;53.524;49.326;2022-08-03T03:50:52;45.92;;;15.82;;
67548;SDS011;54382;53.524;49.326;2022-08-03T03:53:21;32.45;;;15.90;;
67548;SDS011;54382;53.524;49.326;2022-08-03T03:55:49;41.25;;;15.57;;
67548;SDS011;54382;53.524;49.326;2022-08-03T03:58:19;43.33;;;17.40;;
67548;SDS011;54382;53.524;49.326;2022-08-03T04:00:45;32.45;;;14.07;;
67548;SDS011;54382;53.524;49.326;2022-08-03T04:03:12;38.25;;;16.42;;
67548;SDS011;54382;53.524;49.326;2022-08-03T04:05:39;36.72;;;15.45;;
67548;SDS011;54382;53.524;49.326;2022-08-03T04:08:24;40.90;;;15.90;;
67548;SDS011;54382;53.524;49.326;2022-08-03T04:13:56;47.47;;;15.50;;
67548;SDS011;54382;53.524;49.326;2022-08-03T04:16:30;47.58;;;16.25;;
67548;SDS011;54382;53.524;49.326;2022-08-03T04:19:01;41.60;;;17.17;;
67548;SDS011;54382;53.524;49.326;2022-08-03T04:21:32;47.33;;;18.02;;
67548;SDS011;54382;53.524;49.326;2022-08-03T04:24:03;40.70;;;16.30;;
67548;SDS011;54382;53.524;49.326;2022-08-03T04:26:35;44.45;;;17.95;;
67548;SDS011;54382;53.524;49.326;2022-08-03T04:29:05;44.38;;;19.42;;
67548;SDS011;54382;53.524;49.326;2022-08-03T04:31:32;49.33;;;23.55;;
67548;SDS011;54382;53.524;49.326;2022-08-03T04:34:01;73.95;;;26.02;;
67548;SDS011;54382;53.524;49.326;2022-08-03T04:36:31;50.15;;;21.87;;
67548;SDS011;54382;53.524;49.326;2022-08-03T04:39:07;62.95;;;23.62;;
67548;SDS011;54382;53.524;49.326;2022-08-03T04:41:41;41.53;;;16.33;;
67548;SDS011;54382;53.524;49.326;2022-08-03T04:44:09;27.62;;;13.75;;
67548;SDS011;54382;53.524;49.326;2022-08-03T04:46:38;35.15;;;14.27;;
67548;SDS011;54382;53.524;49.326;2022-08-03T04:49:05;27.10;;;11.98;;
67548;SDS011;54382;53.524;49.326;2022-08-03T04:51:32;30.58;;;10.30;;
67548;SDS011;54382;53.524;49.326;2022-08-03T04:54:02;43.87;;;10.60;;
67548;SDS011;54382;53.524;49.326;2022-08-03T04:56:29;42.60;;;9.98;;
67548;SDS011;54382;53.524;49.326;2022-08-03T04:58:56;26.50;;;9.00;;
67548;SDS011;54382;53.524;49.326;2022-08-03T05:01:23;28.52;;;9.15;;
67548;SDS011;54382;53.524;49.326;2022-08-03T05:03:49;34.00;;;9.13;;
67548;SDS011;54382;53.524;49.326;2022-08-03T05:06:16;23.62;;;8.40;;
67548;SDS011;54382;53.524;49.326;2022-08-03T05:08:43;23.45;;;7.30;;
67548;SDS011;54382;53.524;49.326;2022-08-03T05:11:09;23.95;;;6.75;;
67548;SDS011;54382;53.524;49.326;2022-08-03T05:13:36;15.43;;;6.72;;
67548;SDS011;54382;53.524;49.326;2022-08-03T05:16:03;15.95;;;6.40;;
67548;SDS011;54382;53.524;49.326;2022-08-03T05:18:30;18.25;;;6.05;;
67548;SDS011;54382;53.524;49.326;2022-08-03T05:20:56;16.87;;;5.25;;
67548;SDS011;54382;53.524;49.326;2022-08-03T05:23:23;15.35;;;5.80;;
67548;SDS011;54382;53.524;49.326;2022-08-03T05:25:50;16.48;;;5.95;;
67548;SDS011;54382;53.524;49.326;2022-08-03T05:28:16;14.02;;;6.03;;
67548;SDS011;54382;53.524;49.326;2022-08-03T05:30:43;19.83;;;6.20;;
67548;SDS011;54382;53.524;49.326;2022-08-03T05:33:09;8.77;;;4.87;;
67548;SDS011;54382;53.524;49.326;2022-08-03T05:35:36;14.35;;;5.10;;
67548;SDS011;54382;53.524;49.326;2022-08-03T05:38:03;14.87;;;5.37;;
67548;SDS011;54382;53.524;49.326;2022-08-03T05:40:30;8.60;;;4.22;;
67548;SDS011;54382;53.524;49.326;2022-08-03T05:42:57;13.15;;;4.57;;
67548;SDS011;54382;53.524;49.326;2022-08-03T05:45:24;17.10;;;4.90;;
67548;SDS011;54382;53.524;49.326;2022-08-03T05:47:51;13.15;;;4.75;;
67548;SDS011;54382;53.524;49.326;2022-08-03T05:50:18;8.82;;;4.55;;
67548;SDS011;54382;53.524;49.326;2022-08-03T05:52:45;13.18;;;4.20;;
67548;SDS011;54382;53.524;49.326;2022-08-03T05:55:12;17.48;;;3.22;;
67548;SDS011;54382;53.524;49.326;2022-08-03T05:57:40;8.10;;;3.00;;
67548;SDS011;54382;53.524;49.326;2022-08-03T06:00:08;3.22;;;1.87;;
67548;SDS011;54382;53.524;49.326;2022-08-03T06:02:37;16.23;;;3.70;;
67548;SDS011;54382;53.524;49.326;2022-08-03T06:05:04;18.75;;;3.85;;
67548;SDS011;54382;53.524;49.326;2022-08-03T06:07:31;14.55;;;3.62;;
67548;SDS011;54382;53.524;49.326;2022-08-03T06:09:58;31.05;;;2.70;;
67548;SDS011;54382;53.524;49.326;2022-08-03T06:12:28;5.47;;;1.55;;
67548;SDS011;54382;53.524;49.326;2022-08-03T06:14:55;5.07;;;2.30;;
67548;SDS011;54382;53.524;49.326;2022-08-03T06:17:22;8.90;;;2.70;;
67548;SDS011;54382;53.524;49.326;2022-08-03T06:19:50;6.72;;;2.70;;
67548;SDS011;54382;53.524;49.326;2022-08-03T06:22:18;7.57;;;2.08;;
67548;SDS011;54382;53.524;49.326;2022-08-03T06:24:45;5.95;;;2.25;;
67548;SDS011;54382;53.524;49.326;2022-08-03T06:27:11;5.87;;;2.55;;
67548;SDS011;54382;53.524;49.326;2022-08-03T06:29:38;8.27;;;2.03;;
67548;SDS011;54382;53.524;49.326;2022-08-03T06:32:05;3.28;;;1.20;;
67548;SDS011;54382;53.524;49.326;2022-08-03T06:34:31;4.87;;;1.85;;
67548;SDS011;54382;53.524;49.326;2022-08-03T06:36:58;4.07;;;2.40;;
67548;SDS011;54382;53.524;49.326;2022-08-03T06:39:25;5.70;;;2.45;;
67548;SDS011;54382;53.524;49.326;2022-08-03T06:41:51;2.50;;;1.40;;
67548;SDS011;54382;53.524;49.326;2022-08-03T06:44:18;12.63;;;2.10;;
67548;SDS011;54382;53.524;49.326;2022-08-03T06:46:45;8.88;;;2.50;;
67548;SDS011;54382;53.524;49.326;2022-08-03T06:49:12;5.35;;;2.20;;
67548;SDS011;54382;53.524;49.326;2022-08-03T06:51:38;6.07;;;2.33;;
67548;SDS011;54382;53.524;49.326;2022-08-03T06:54:05;7.47;;;1.80;;
67548;SDS011;54382;53.524;49.326;2022-08-03T06:56:35;3.30;;;1.95;;
67548;SDS011;54382;53.524;49.326;2022-08-03T06:59:01;6.12;;;2.17;;
67548;SDS011;54382;53.524;49.326;2022-08-03T07:01:28;6.00;;;2.12;;
67548;SDS011;54382;53.524;49.326;2022-08-03T07:03:55;11.40;;;2.70;;
67548;SDS011;54382;53.524;49.326;2022-08-03T07:06:21;3.30;;;1.85;;
67548;SDS011;54382;53.524;49.326;2022-08-03T07:08:49;3.80;;;1.62;;
67548;SDS011;54382;53.524;49.326;2022-08-03T07:11:15;10.75;;;2.45;;
67548;SDS011;54382;53.524;49.326;2022-08-03T07:13:42;4.55;;;1.98;;
67548;SDS011;54382;53.524;49.326;2022-08-03T07:16:08;4.05;;;1.90;;
67548;SDS011;54382;53.524;49.326;2022-08-03T07:18:39;17.08;;;2.60;;
67548;SDS011;54382;53.524;49.326;2022-08-03T07:21:05;1.60;;;0.77;;
67548;SDS011;54382;53.524;49.326;2022-08-03T07:23:34;17.95;;;2.80;;
67548;SDS011;54382;53.524;49.326;2022-08-03T07:26:01;8.68;;;3.03;;
67548;SDS011;54382;53.524;49.326;2022-08-03T07:28:27;7.32;;;1.70;;
67548;SDS011;54382;53.524;49.326;2022-08-03T07:30:54;9.02;;;2.20;;
67548;SDS011;54382;53.524;49.326;2022-08-03T07:33:22;8.10;;;2.33;;
67548;SDS011;54382;53.524;49.326;2022-08-03T07:35:48;11.75;;;2.35;;
67548;SDS011;54382;53.524;49.326;2022-08-03T07:38:15;5.40;;;1.70;;
67548;SDS011;54382;53.524;49.326;2022-08-03T07:40:42;8.68;;;1.80;;
67548;SDS011;54382;53.524;49.326;2022-08-03T07:43:08;9.45;;;1.90;;
67548;SDS011;54382;53.524;49.326;2022-08-03T07:45:35;4.00;;;1.90;;
67548;SDS011;54382;53.524;49.326;2022-08-03T07:48:02;4.10;;;1.42;;
67548;SDS011;54382;53.524;49.326;2022-08-03T07:50:30;5.90;;;0.90;;
67548;SDS011;54382;53.524;49.326;2022-08-03T07:52:56;6.78;;;2.00;;
67548;SDS011;54382;53.524;49.326;2022-08-03T07:55:24;8.63;;;1.33;;
67548;SDS011;54382;53.524;49.326;2022-08-03T07:57:59;2.83;;;0.75;;
67548;SDS011;54382;53.524;49.326;2022-08-03T08:00:30;6.07;;;1.25;;
67548;SDS011;54382;53.524;49.326;2022-08-03T08:02:58;8.50;;;2.55;;
67548;SDS011;54382;53.524;49.326;2022-08-03T08:05:25;6.85;;;1.87;;
67548;SDS011;54382;53.524;49.326;2022-08-03T08:07:52;2.62;;;1.40;;
67548;SDS011;54382;53.524;49.326;2022-08-03T08:10:19;2.15;;;0.60;;
67548;SDS011;54382;53.524;49.326;2022-08-03T08:12:46;2.53;;;1.30;;
67548;SDS011;54382;53.524;49.326;2022-08-03T08:15:13;7.43;;;1.73;;
67548;SDS011;54382;53.524;49.326;2022-08-03T08:17:44;23.02;;;2.12;;
67548;SDS011;54382;53.524;49.326;2022-08-03T08:20:19;4.03;;;1.67;;
67548;SDS011;54382;53.524;49.326;2022-08-03T08:22:48;5.03;;;2.35;;
67548;SDS011;54382;53.524;49.326;2022-08-03T08:25:14;3.28;;;1.65;;
67548;SDS011;54382;53.524;49.326;2022-08-03T08:27:42;5.62;;;2.17;;
67548;SDS011;54382;53.524;49.326;2022-08-03T08:30:15;13.52;;;1.90;;
67548;SDS011;54382;53.524;49.326;2022-08-03T08:32:44;5.82;;;1.70;;
67548;SDS011;54382;53.524;49.326;2022-08-03T08:35:11;5.10;;;1.77;;
67548;SDS011;54382;53.524;49.326;2022-08-03T08:37:38;12.18;;;3.50;;
67548;SDS011;54382;53.524;49.326;2022-08-03T08:40:06;4.85;;;1.75;;
67548;SDS011;54382;53.524;49.326;2022-08-03T08:42:37;7.32;;;2.78;;
67548;SDS011;54382;53.524;49.326;2022-08-03T08:47:35;5.97;;;2.15;;
67548;SDS011;54382;53.524;49.326;2022-08-03T08:50:10;2.67;;;1.00;;
67548;SDS011;54382;53.524;49.326;2022-08-03T08:52:38;4.55;;;2.00;;
67548;SDS011;54382;53.524;49.326;2022-08-03T08:55:08;4.30;;;1.77;;
67548;SDS011;54382;53.524;49.326;2022-08-03T08:57:37;3.67;;;1.10;;
67548;SDS011;54382;53.524;49.326;2022-08-03T09:00:15;6.50;;;2.15;;
67548;SDS011;54382;53.524;49.326;2022-08-03T09:02:42;3.05;;;1.58;;
67548;SDS011;54382;53.524;49.326;2022-08-03T09:05:11;7.03;;;2.50;;
67548;SDS011;54382;53.524;49.326;2022-08-03T09:07:39;9.18;;;2.60;;
67548;SDS011;54382;53.524;49.326;2022-08-03T09:10:10;6.30;;;3.05;;
67548;SDS011;54382;53.524;49.326;2022-08-03T09:12:41;6.03;;;2.70;;
67548;SDS011;54382;53.524;49.326;2022-08-03T09:17:53;12.02;;;2.60;;
67548;SDS011;54382;53.524;49.326;2022-08-03T09:20:22;1.67;;;0.68;;
67548;SDS011;54382;53.524;49.326;2022-08-03T09:22:57;6.35;;;2.30;;
67548;SDS011;54382;53.524;49.326;2022-08-03T09:25:38;8.27;;;2.67;;
67548;SDS011;54382;53.524;49.326;2022-08-03T09:28:07;9.73;;;2.55;;
67548;SDS011;54382;53.524;49.326;2022-08-03T09:30:38;5.25;;;2.17;;
67548;SDS011;54382;53.524;49.326;2022-08-03T09:33:10;3.62;;;1.65;;
67548;SDS011;54382;53.524;49.326;2022-08-03T09:35:42;8.20;;;1.95;;
67548;SDS011;54382;53.524;49.326;2022-08-03T09:40:43;10.25;;;2.75;;
67548;SDS011;54382;53.524;49.326;2022-08-03T09:43:10;6.43;;;2.60;;
67548;SDS011;54382;53.524;49.326;2022-08-03T09:45:38;12.82;;;1.35;;
67548;SDS011;54382;53.524;49.326;2022-08-03T09:50:53;5.70;;;2.60;;
67548;SDS011;54382;53.524;49.326;2022-08-03T09:53:25;10.50;;;3.10;;
67548;SDS011;54382;53.524;49.326;2022-08-03T09:55:56;4.68;;;2.42;;
67548;SDS011;54382;53.524;49.326;2022-08-03T09:58:28;6.05;;;2.05;;
67548;SDS011;54382;53.524;49.326;2022-08-03T10:01:00;10.32;;;1.87;;
67548;SDS011;54382;53.524;49.326;2022-08-03T10:03:29;14.02;;;2.20;;
67548;SDS011;54382;53.524;49.326;2022-08-03T10:05:59;6.53;;;1.87;;
67548;SDS011;54382;53.524;49.326;2022-08-03T10:08:47;5.25;;;1.70;;
67548;SDS011;54382;53.524;49.326;2022-08-03T10:11:41;7.65;;;2.10;;
67548;SDS011;54382;53.524;49.326;2022-08-03T10:14:11;4.68;;;1.60;;
67548;SDS011;54382;53.524;49.326;2022-08-03T10:16:43;7.07;;;2.12;;
67548;SDS011;54382;53.524;49.326;2022-08-03T10:19:11;5.50;;;1.80;;
67548;SDS011;54382;53.524;49.326;2022-08-03T10:21:40;1.95;;;1.10;;
67548;SDS011;54382;53.524;49.326;2022-08-03T10:24:12;3.62;;;1.83;;
67548;SDS011;54382;53.524;49.326;2022-08-03T10:26:43;11.18;;;1.87;;
67548;SDS011;54382;53.524;49.326;2022-08-03T10:29:11;15.27;;;2.00;;
67548;SDS011;54382;53.524;49.326;2022-08-03T10:31:49;10.63;;;2.20;;
67548;SDS011;54382;53.524;49.326;2022-08-03T10:34:23;6.05;;;2.10;;
67548;SDS011;54382;53.524;49.326;2022-08-03T10:36:53;3.83;;;1.58;;
67548;SDS011;54382;53.524;49.326;2022-08-03T10:39:24;5.65;;;1.67;;
67548;SDS011;54382;53.524;49.326;2022-08-03T10:41:54;8.95;;;2.20;;
67548;SDS011;54382;53.524;49.326;2022-08-03T10:44:23;7.20;;;1.92;;
67548;SDS011;54382;53.524;49.326;2022-08-03T10:46:57;3.05;;;1.67;;
67548;SDS011;54382;53.524;49.326;2022-08-03T10:49:24;13.27;;;2.95;;
67548;SDS011;54382;53.524;49.326;2022-08-03T10:51:51;4.25;;;1.90;;
67548;SDS011;54382;53.524;49.326;2022-08-03T10:57:41;20.62;;;2.53;;
67548;SDS011;54382;53.524;49.326;2022-08-03T11:00:17;9.10;;;2.00;;
67548;SDS011;54382;53.524;49.326;2022-08-03T11:03:05;6.45;;;1.95;;
67548;SDS011;54382;53.524;49.326;2022-08-03T11:05:39;7.82;;;1.85;;
67548;SDS011;54382;53.524;49.326;2022-08-03T11:10:50;13.88;;;2.20;;
67548;SDS011;54382;53.524;49.326;2022-08-03T11:13:20;5.68;;;1.90;;
67548;SDS011;54382;53.524;49.326;2022-08-03T11:15:50;12.30;;;2.00;;
67548;SDS011;54382;53.524;49.326;2022-08-03T11:18:19;9.90;;;1.87;;
67548;SDS011;54382;53.524;49.326;2022-08-03T11:20:53;8.25;;;2.20;;
67548;SDS011;54382;53.524;49.326;2022-08-03T11:23:41;4.82;;;1.70;;
67548;SDS011;54382;53.524;49.326;2022-08-03T11:26:14;9.93;;;2.63;;
67548;SDS011;54382;53.524;49.326;2022-08-03T11:28:47;5.75;;;2.15;;
67548;SDS011;54382;53.524;49.326;2022-08-03T11:34:07;8.35;;;1.98;;
67548;SDS011;54382;53.524;49.326;2022-08-03T11:39:45;10.70;;;2.42;;
67548;SDS011;54382;53.524;49.326;2022-08-03T11:44:55;15.07;;;2.25;;
67548;SDS011;54382;53.524;49.326;2022-08-03T11:47:24;10.82;;;2.75;;
67548;SDS011;54382;53.524;49.326;2022-08-03T11:49:53;10.15;;;2.20;;
67548;SDS011;54382;53.524;49.326;2022-08-03T11:52:24;9.70;;;2.30;;
67548;SDS011;54382;53.524;49.326;2022-08-03T11:54:53;9.00;;;2.10;;
67548;SDS011;54382;53.524;49.326;2022-08-03T11:57:33;7.47;;;1.60;;
67548;SDS011;54382;53.524;49.326;2022-08-03T12:00:02;12.93;;;1.90;;
67548;SDS011;54382;53.524;49.326;2022-08-03T12:02:54;10.45;;;2.45;;
67548;SDS011;54382;53.524;49.326;2022-08-03T12:05:35;12.27;;;2.72;;
67548;SDS011;54382;53.524;49.326;2022-08-03T12:08:09;13.30;;;2.00;;
67548;SDS011;54382;53.524;49.326;2022-08-03T12:10:38;5.50;;;1.90;;
67548;SDS011;54382;53.524;49.326;2022-08-03T12:13:11;4.05;;;1.80;;
67548;SDS011;54382;53.524;49.326;2022-08-03T12:15:38;8.77;;;2.10;;
67548;SDS011;54382;53.524;49.326;2022-08-03T12:18:12;13.98;;;1.90;;
67548;SDS011;54382;53.524;49.326;2022-08-03T12:20:42;18.80;;;2.25;;
67548;SDS011;54382;53.524;49.326;2022-08-03T12:23:10;14.95;;;2.15;;
67548;SDS011;54382;53.524;49.326;2022-08-03T12:25:38;19.25;;;2.92;;
67548;SDS011;54382;53.524;49.326;2022-08-03T12:30:45;6.82;;;1.92;;
67548;SDS011;54382;53.524;49.326;2022-08-03T12:33:25;5.60;;;2.20;;
67548;SDS011;54382;53.524;49.326;2022-08-03T12:38:36;8.30;;;2.30;;
67548;SDS011;54382;53.524;49.326;2022-08-03T12:41:05;12.50;;;2.80;;
67548;SDS011;54382;53.524;49.326;2022-08-03T12:43:46;7.78;;;2.62;;
67548;SDS011;54382;53.524;49.326;2022-08-03T12:46:14;8.25;;;2.40;;
67548;SDS011;54382;53.524;49.326;2022-08-03T12:54:27;10.13;;;2.20;;
67548;SDS011;54382;53.524;49.326;2022-08-03T12:56:59;8.73;;;2.25;;
67548;SDS011;54382;53.524;49.326;2022-08-03T12:59:31;12.07;;;2.03;;
67548;SDS011;54382;53.524;49.326;2022-08-03T13:02:03;5.95;;;1.27;;
67548;SDS011;54382;53.524;49.326;2022-08-03T13:04:31;7.65;;;2.20;;
67548;SDS011;54382;53.524;49.326;2022-08-03T13:07:04;6.65;;;2.40;;
67548;SDS011;54382;53.524;49.326;2022-08-03T13:09:43;6.53;;;1.85;;
67548;SDS011;54382;53.524;49.326;2022-08-03T13:12:16;13.48;;;2.62;;
67548;SDS011;54382;53.524;49.326;2022-08-03T13:14:48;11.20;;;2.58;;
67548;SDS011;54382;53.524;49.326;2022-08-03T13:17:17;5.32;;;1.92;;
67548;SDS011;54382;53.524;49.326;2022-08-03T13:19:44;7.72;;;2.30;;
67548;SDS011;54382;53.524;49.326;2022-08-03T13:22:12;5.00;;;2.15;;
67548;SDS011;54382;53.524;49.326;2022-08-03T13:24:42;11.98;;;3.15;;
67548;SDS011;54382;53.524;49.326;2022-08-03T13:27:10;10.00;;;2.72;;
67548;SDS011;54382;53.524;49.326;2022-08-03T13:29:38;7.93;;;2.00;;
67548;SDS011;54382;53.524;49.326;2022-08-03T13:32:07;7.25;;;2.20;;
67548;SDS011;54382;53.524;49.326;2022-08-03T13:34:34;8.02;;;3.15;;
67548;SDS011;54382;53.524;49.326;2022-08-03T13:37:01;7.70;;;1.33;;
67548;SDS011;54382;53.524;49.326;2022-08-03T13:39:28;3.78;;;1.67;;
67548;SDS011;54382;53.524;49.326;2022-08-03T13:41:55;7.10;;;2.00;;
67548;SDS011;54382;53.524;49.326;2022-08-03T13:44:22;10.52;;;2.65;;
67548;SDS011;54382;53.524;49.326;2022-08-03T13:46:49;13.05;;;2.37;;
67548;SDS011;54382;53.524;49.326;2022-08-03T13:49:15;4.37;;;2.10;;
67548;SDS011;54382;53.524;49.326;2022-08-03T13:51:42;8.27;;;2.75;;
67548;SDS011;54382;53.524;49.326;2022-08-03T13:54:09;10.50;;;2.55;;
67548;SDS011;54382;53.524;49.326;2022-08-03T13:56:35;7.28;;;2.87;;
67548;SDS011;54382;53.524;49.326;2022-08-03T13:59:02;10.88;;;2.65;;
67548;SDS011;54382;53.524;49.326;2022-08-03T14:01:29;9.30;;;2.35;;
67548;SDS011;54382;53.524;49.326;2022-08-03T14:03:55;7.55;;;2.90;;
67548;SDS011;54382;53.524;49.326;2022-08-03T14:06:23;7.45;;;2.78;;
67548;SDS011;54382;53.524;49.326;2022-08-03T14:08:50;8.73;;;1.67;;
67548;SDS011;54382;53.524;49.326;2022-08-03T14:11:17;5.70;;;1.87;;
67548;SDS011;54382;53.524;49.326;2022-08-03T14:13:43;10.85;;;2.60;;
67548;SDS011;54382;53.524;49.326;2022-08-03T14:16:10;11.40;;;2.00;;
67548;SDS011;54382;53.524;49.326;2022-08-03T14:18:37;14.27;;;3.45;;
67548;SDS011;54382;53.524;49.326;2022-08-03T14:21:04;12.10;;;2.60;;
67548;SDS011;54382;53.524;49.326;2022-08-03T14:23:31;10.02;;;2.22;;
67548;SDS011;54382;53.524;49.326;2022-08-03T14:25:58;5.62;;;2.30;;
67548;SDS011;54382;53.524;49.326;2022-08-03T14:28:25;10.13;;;2.80;;
67548;SDS011;54382;53.524;49.326;2022-08-03T14:34:19;3.75;;;1.83;;
67548;SDS011;54382;53.524;49.326;2022-08-03T14:36:46;5.97;;;2.10;;
67548;SDS011;54382;53.524;49.326;2022-08-03T14:39:12;11.60;;;2.40;;
67548;SDS011;54382;53.524;49.326;2022-08-03T14:41:39;15.98;;;2.92;;
67548;SDS011;54382;53.524;49.326;2022-08-03T14:44:06;13.88;;;3.33;;
67548;SDS011;54382;53.524;49.326;2022-08-03T14:46:33;17.27;;;4.10;;
67548;SDS011;54382;53.524;49.326;2022-08-03T14:48:59;6.05;;;3.03;;
67548;SDS011;54382;53.524;49.326;2022-08-03T14:51:27;14.65;;;3.35;;
67548;SDS011;54382;53.524;49.326;2022-08-03T14:53:54;12.88;;;3.05;;
67548;SDS011;54382;53.524;49.326;2022-08-03T14:56:20;10.98;;;2.58;;
67548;SDS011;54382;53.524;49.326;2022-08-03T14:58:47;9.40;;;2.50;;
67548;SDS011;54382;53.524;49.326;2022-08-03T15:01:14;7.22;;;2.67;;
67548;SDS011;54382;53.524;49.326;2022-08-03T15:03:40;9.57;;;2.22;;
67548;SDS011;54382;53.524;49.326;2022-08-03T15:06:08;13.32;;;2.42;;
67548;SDS011;54382;53.524;49.326;2022-08-03T15:08:34;5.75;;;2.28;;
67548;SDS011;54382;53.524;49.326;2022-08-03T15:11:01;10.48;;;2.30;;
67548;SDS011;54382;53.524;49.326;2022-08-03T15:13:28;9.10;;;2.67;;
67548;SDS011;54382;53.524;49.326;2022-08-03T15:15:54;12.30;;;2.87;;
67548;SDS011;54382;53.524;49.326;2022-08-03T15:18:22;7.60;;;1.98;;
67548;SDS011;54382;53.524;49.326;2022-08-03T15:20:48;8.52;;;2.50;;
67548;SDS011;54382;53.524;49.326;2022-08-03T15:23:16;14.23;;;3.22;;
67548;SDS011;54382;53.524;49.326;2022-08-03T15:25:43;16.75;;;2.87;;
67548;SDS011;54382;53.524;49.326;2022-08-03T15:28:10;12.32;;;3.28;;
67548;SDS011;54382;53.524;49.326;2022-08-03T15:30:37;14.65;;;2.70;;